Time;durP1;ratioP1;P1;durP2;ratioP2;P2;SDS_P1;SDS_P2;PMS_P1;PMS_P2;Temp;Humidity;BMP_temperature;BMP_pressure;BME280_temperature;BME280_humidity;BME280_pressure;Samples;Min_cycle;Max_cycle;Signal;HPM_P1;HPM_P2
2021/11/25 00:00:23;;;;;;;48.28;25.50;;;0.30;99.90;;;;;;6309678;22;20019;-90
2021/11/25 00:03:13;;;;;;;50.13;25.45;;;0.20;99.90;;;;;;6287158;22;20023;-92
2021/11/25 00:06:00;;;;;;;51.47;24.83;;;0.30;99.90;;;;;;6285721;22;20111;-89
2021/11/25 00:08:50;;;;;;;47.88;24.55;;;0.30;99.90;;;;;;6284625;22;20035;-90
2021/11/25 00:11:39;;;;;;;51.00;24.92;;;0.20;99.90;;;;;;6264317;22;20098;-89
2021/11/25 00:14:27;;;;;;;56.42;26.70;;;0.30;99.90;;;;;;6265252;22;20024;-88
2021/11/25 00:17:17;;;;;;;52.90;24.90;;;0.20;99.90;;;;;;6285147;22;20033;-89
2021/11/25 00:20:07;;;;;;;50.03;24.88;;;0.30;99.90;;;;;;6265060;22;20023;-91
2021/11/25 00:22:57;;;;;;;55.08;25.38;;;0.30;99.90;;;;;;6289337;22;20027;-90
2021/11/25 00:25:44;;;;;;;57.08;26.13;;;0.30;99.90;;;;;;6265857;22;20027;-89
2021/11/25 00:28:32;;;;;;;53.05;26.55;;;0.20;99.90;;;;;;6310798;22;20100;-91
2021/11/25 00:31:19;;;;;;;47.50;23.58;;;0.20;99.90;;;;;;6266935;22;20015;-90
2021/11/25 00:34:07;;;;;;;49.45;24.63;;;0.20;99.90;;;;;;6266550;22;20023;-91
2021/11/25 00:36:57;;;;;;;49.92;26.25;;;0.20;99.90;;;;;;6311660;22;20023;-92
2021/11/25 00:39:44;;;;;;;55.85;25.98;;;0.20;99.90;;;;;;6282826;22;20076;-88
2021/11/25 00:42:32;;;;;;;49.95;25.23;;;0.20;99.90;;;;;;6284821;22;20023;-90
2021/11/25 00:45:20;;;;;;;52.67;25.88;;;0.20;99.90;;;;;;6286110;22;20023;-90
2021/11/25 00:48:10;;;;;;;53.88;26.45;;;0.20;99.90;;;;;;6308463;22;20035;-90
2021/11/25 00:50:57;;;;;;;56.90;26.35;;;0.20;99.90;;;;;;6264252;22;20031;-91
2021/11/25 00:53:44;;;;;;;49.38;25.17;;;0.20;99.90;;;;;;6262997;22;20023;-87
2021/11/25 00:56:32;;;;;;;54.40;26.23;;;0.20;99.90;;;;;;6284831;22;20092;-91
2021/11/25 00:59:22;;;;;;;53.00;24.80;;;0.20;99.90;;;;;;6261823;22;20019;-91
2021/11/25 01:02:10;;;;;;;53.85;25.98;;;0.20;99.90;;;;;;6265982;22;20365;-89
2021/11/25 01:04:58;;;;;;;56.80;26.02;;;0.20;99.90;;;;;;6264011;22;20027;-90
2021/11/25 01:07:46;;;;;;;55.97;26.83;;;0.20;99.90;;;;;;6284555;22;20050;-89
2021/11/25 01:10:34;;;;;;;48.83;25.17;;;0.20;99.90;;;;;;6306493;22;20042;-89
2021/11/25 01:13:21;;;;;;;53.67;27.10;;;0.20;99.90;;;;;;6308537;22;20629;-90
2021/11/25 01:16:11;;;;;;;55.42;26.70;;;0.20;99.90;;;;;;6309023;22;20149;-91
2021/11/25 01:18:58;;;;;;;55.83;27.30;;;0.20;99.90;;;;;;6312047;22;20027;-91
2021/11/25 01:21:46;;;;;;;54.20;26.27;;;0.20;99.90;;;;;;6309400;22;20072;-90
2021/11/25 01:24:33;;;;;;;57.92;27.92;;;0.10;99.90;;;;;;6287166;22;20023;-90
2021/11/25 01:27:21;;;;;;;55.00;26.10;;;0.20;99.90;;;;;;6310738;22;20080;-90
2021/11/25 01:30:12;;;;;;;53.83;27.17;;;0.20;99.90;;;;;;6286543;22;20038;-92
2021/11/25 01:33:01;;;;;;;59.00;27.27;;;0.10;99.90;;;;;;6285695;22;20124;-89
2021/11/25 01:35:51;;;;;;;56.67;26.83;;;0.10;99.90;;;;;;6286751;22;20046;-91
2021/11/25 01:38:38;;;;;;;62.05;27.73;;;0.10;99.90;;;;;;6286700;22;20539;-88
2021/11/25 01:41:25;;;;;;;58.35;28.15;;;0.10;99.90;;;;;;6286057;22;20057;-91
2021/11/25 01:44:12;;;;;;;54.42;26.38;;;0.10;99.90;;;;;;6285611;22;20027;-90
2021/11/25 01:47:06;;;;;;;60.65;28.02;;;0.10;99.90;;;;;;6308528;22;20065;-90
2021/11/25 01:49:54;;;;;;;57.70;28.05;;;0.20;99.90;;;;;;6284612;22;20398;-89
2021/11/25 01:52:42;;;;;;;56.08;28.27;;;0.10;99.90;;;;;;6282712;22;20099;-91
2021/11/25 01:55:30;;;;;;;55.65;27.48;;;0.10;99.90;;;;;;6306367;22;20122;-91
2021/11/25 01:58:17;;;;;;;60.67;28.13;;;0.10;99.90;;;;;;6286290;22;20067;-89
2021/11/25 02:01:08;;;;;;;55.22;26.17;;;0.10;99.90;;;;;;6286364;22;20027;-91
2021/11/25 02:03:57;;;;;;;65.20;28.85;;;0.10;99.90;;;;;;6288265;22;20081;-89
2021/11/25 02:06:44;;;;;;;59.80;27.88;;;0.10;99.90;;;;;;6266981;22;20108;-89
2021/11/25 02:09:32;;;;;;;58.78;28.40;;;0.10;99.90;;;;;;6266791;22;20027;-89
2021/11/25 02:12:20;;;;;;;56.70;27.20;;;0.10;99.90;;;;;;6266078;22;20050;-89
2021/11/25 02:15:12;;;;;;;55.67;27.25;;;0.10;99.90;;;;;;6287617;22;20027;-89
2021/11/25 02:18:06;;;;;;;57.97;28.00;;;0.10;99.90;;;;;;6286874;22;20088;-90
2021/11/25 02:20:58;;;;;;;58.13;27.42;;;0.10;99.90;;;;;;6293429;22;20053;-91
2021/11/25 02:23:45;;;;;;;62.78;29.48;;;0.10;99.90;;;;;;6318412;22;20023;-91
2021/11/25 02:26:32;;;;;;;60.20;27.27;;;0.10;99.90;;;;;;6294067;22;20053;-89
2021/11/25 02:29:19;;;;;;;57.58;27.67;;;0.10;99.90;;;;;;6296843;22;20040;-88
2021/11/25 02:32:08;;;;;;;63.83;29.23;;;0.10;99.90;;;;;;6291935;22;20050;-88
2021/11/25 02:34:58;;;;;;;56.72;27.17;;;0.10;99.90;;;;;;6263739;22;20034;-90
2021/11/25 02:37:47;;;;;;;62.05;27.92;;;0.10;99.90;;;;;;6287946;22;20019;-91
2021/11/25 02:40:42;;;;;;;56.83;27.60;;;0.10;99.90;;;;;;6285537;22;20023;-91
2021/11/25 02:43:32;;;;;;;59.50;28.80;;;0.00;99.90;;;;;;6287249;22;20329;-90
2021/11/25 02:46:22;;;;;;;57.85;28.90;;;0.00;99.90;;;;;;6287050;22;20023;-90
2021/11/25 02:49:10;;;;;;;63.95;29.75;;;0.10;99.90;;;;;;6304403;22;20336;-90
2021/11/25 02:51:57;;;;;;;58.28;28.05;;;0.10;99.90;;;;;;6282476;22;20026;-90
2021/11/25 02:54:44;;;;;;;60.78;28.48;;;0.10;99.90;;;;;;6260376;22;20096;-89
2021/11/25 02:57:36;;;;;;;62.60;30.08;;;0.10;99.90;;;;;;6286750;22;20038;-90
2021/11/25 03:00:23;;;;;;;61.80;29.40;;;0.10;99.90;;;;;;6286251;22;20139;-89
2021/11/25 03:03:13;;;;;;;60.42;27.98;;;0.10;99.90;;;;;;6287802;22;20027;-90
2021/11/25 03:06:00;;;;;;;63.08;29.33;;;0.10;99.90;;;;;;6286211;22;20034;-91
2021/11/25 03:08:48;;;;;;;61.13;28.02;;;0.10;99.90;;;;;;6266428;22;20035;-90
2021/11/25 03:11:36;;;;;;;63.45;29.38;;;0.00;99.90;;;;;;6308021;22;20046;-90
2021/11/25 03:14:24;;;;;;;68.53;29.42;;;0.00;99.90;;;;;;6286832;22;20345;-89
2021/11/25 03:17:16;;;;;;;66.93;30.08;;;0.00;99.90;;;;;;6306821;22;20089;-88
2021/11/25 03:20:07;;;;;;;50.33;22.95;;;0.00;99.90;;;;;;6290452;22;20031;-89
2021/11/25 03:22:54;;;;;;;64.43;30.27;;;0.00;99.90;;;;;;6268210;22;20434;-88
2021/11/25 03:25:46;;;;;;;62.95;28.73;;;0.00;99.90;;;;;;6286511;22;20353;-91
2021/11/25 03:28:38;;;;;;;66.57;30.75;;;-0.10;99.90;;;;;;6289850;22;20023;-88
2021/11/25 03:31:28;;;;;;;59.80;28.90;;;0.00;99.90;;;;;;6285004;22;20027;-90
2021/11/25 03:34:15;;;;;;;63.75;29.30;;;0.00;99.90;;;;;;6287650;22;20436;-89
2021/11/25 03:37:02;;;;;;;67.95;29.98;;;-0.10;99.90;;;;;;6290569;22;20119;-88
2021/11/25 03:39:50;;;;;;;62.60;28.98;;;-0.10;99.90;;;;;;6267526;22;20027;-91
2021/11/25 03:42:37;;;;;;;58.72;28.90;;;-0.10;99.90;;;;;;6266741;22;20031;-91
2021/11/25 03:45:25;;;;;;;66.68;31.13;;;-0.10;99.90;;;;;;6286679;22;20027;-89
2021/11/25 03:48:12;;;;;;;67.10;30.88;;;-0.10;99.90;;;;;;6263502;22;20019;-91
2021/11/25 03:51:07;;;;;;;70.95;31.08;;;-0.10;99.90;;;;;;6284634;22;20085;-91
2021/11/25 03:53:54;;;;;;;73.03;33.28;;;-0.20;99.90;;;;;;6287035;22;20076;-91
2021/11/25 03:56:41;;;;;;;66.97;30.40;;;-0.20;99.90;;;;;;6306871;22;20096;-91
2021/11/25 03:59:28;;;;;;;74.78;32.38;;;-0.10;99.90;;;;;;6285313;22;20434;-91
2021/11/25 04:02:17;;;;;;;69.13;31.25;;;-0.20;99.90;;;;;;6244587;22;20144;-91
2021/11/25 04:05:08;;;;;;;68.80;31.42;;;-0.10;99.90;;;;;;6290236;22;20029;-90
2021/11/25 04:07:55;;;;;;;68.43;30.80;;;-0.10;99.90;;;;;;6267981;22;20073;-90
2021/11/25 04:10:44;;;;;;;67.22;31.33;;;-0.10;99.90;;;;;;6289018;22;20034;-92
2021/11/25 04:13:33;;;;;;;71.57;31.70;;;-0.10;99.90;;;;;;6286631;22;20027;-91
2021/11/25 04:16:21;;;;;;;66.38;33.03;;;-0.10;99.90;;;;;;6266509;22;20056;-91
2021/11/25 04:19:08;;;;;;;62.65;31.50;;;-0.10;99.90;;;;;;6267199;22;20022;-89
2021/11/25 04:21:55;;;;;;;67.43;31.02;;;-0.10;99.90;;;;;;6286765;22;20077;-91
2021/11/25 04:24:43;;;;;;;73.00;33.15;;;-0.10;99.90;;;;;;6288458;22;20038;-90
2021/11/25 04:27:30;;;;;;;67.57;32.83;;;-0.10;99.90;;;;;;6286337;22;20046;-90
2021/11/25 04:36:17;;;;;;;76.22;33.70;;;-0.10;99.90;;;;;;6310007;22;20401;-89
2021/11/25 04:39:07;;;;;;;73.25;33.90;;;-0.20;99.90;;;;;;6307470;22;20444;-89
2021/11/25 04:41:55;;;;;;;79.45;34.75;;;-0.10;99.90;;;;;;6288431;22;20060;-88
2021/11/25 04:44:48;;;;;;;73.80;33.72;;;-0.10;99.90;;;;;;6308048;22;20027;-91
2021/11/25 04:47:36;;;;;;;72.00;33.95;;;-0.10;99.90;;;;;;6311342;22;20027;-88
2021/11/25 04:50:26;;;;;;;75.15;34.40;;;-0.10;99.90;;;;;;6269512;22;20027;-88
2021/11/25 04:53:15;;;;;;;79.90;34.22;;;-0.10;99.90;;;;;;6265061;22;20055;-89
2021/11/25 04:56:02;;;;;;;71.05;33.50;;;-0.10;99.90;;;;;;6289089;22;20023;-90
2021/11/25 04:58:50;;;;;;;67.65;32.92;;;-0.10;99.90;;;;;;6311908;22;20433;-91
2021/11/25 05:01:43;;;;;;;71.22;33.33;;;-0.10;99.90;;;;;;6265242;22;20096;-91
2021/11/25 05:04:50;;;;;;;;;;;-0.10;99.90;;;;;;6181684;23;20035;-91
2021/11/25 05:07:38;;;;;;;78.60;35.80;;;-0.10;99.90;;;;;;6264867;22;20239;-90
2021/11/25 05:10:25;;;;;;;74.00;34.35;;;-0.20;99.90;;;;;;6310448;22;20027;-89
2021/11/25 05:13:12;;;;;;;80.00;35.05;;;-0.10;99.90;;;;;;6287431;22;20034;-92
2021/11/25 05:16:01;;;;;;;71.13;34.13;;;-0.10;99.90;;;;;;6286678;22;20050;-91
2021/11/25 05:18:48;;;;;;;76.63;35.13;;;-0.10;99.90;;;;;;6287216;22;20727;-91
2021/11/25 05:21:35;;;;;;;84.38;37.83;;;-0.10;99.90;;;;;;6292038;22;20031;-89
2021/11/25 05:24:23;;;;;;;82.07;36.05;;;-0.10;99.90;;;;;;6293792;22;20104;-92
2021/11/25 05:27:12;;;;;;;75.28;35.08;;;-0.10;99.90;;;;;;6312427;22;20026;-89
2021/11/25 05:29:59;;;;;;;80.40;34.42;;;-0.20;99.90;;;;;;6277225;22;20049;-90
2021/11/25 05:32:47;;;;;;;83.95;36.78;;;-0.20;99.90;;;;;;6328750;22;20125;-91
2021/11/25 05:35:35;;;;;;;84.35;38.08;;;-0.20;99.90;;;;;;6305502;22;20458;-89
2021/11/25 05:38:30;;;;;;;84.10;35.28;;;-0.20;99.90;;;;;;6293661;22;20027;-86
2021/11/25 05:41:18;;;;;;;87.38;36.75;;;-0.30;99.90;;;;;;6305728;22;20422;-86
2021/11/25 05:44:05;;;;;;;84.50;37.33;;;-0.30;99.90;;;;;;6304718;22;20054;-87
2021/11/25 05:46:53;;;;;;;84.30;36.42;;;-0.30;99.90;;;;;;6305526;22;20027;-86
2021/11/25 05:49:40;;;;;;;86.43;37.33;;;-0.30;99.90;;;;;;6281517;22;20049;-86
2021/11/25 06:00:43;;;;;;;87.57;36.88;;;-0.30;99.90;;;;;;6155721;22;20410;-92
2021/11/25 06:03:33;;;;;;;87.90;37.13;;;-0.30;99.90;;;;;;6153926;23;20029;-89
2021/11/25 06:06:21;;;;;;;91.15;36.97;;;-0.30;99.90;;;;;;6177929;22;20026;-90
2021/11/25 06:09:09;;;;;;;95.50;38.42;;;-0.20;99.90;;;;;;6259560;22;20104;-91
2021/11/25 06:11:58;;;;;;;87.05;36.83;;;-0.30;99.90;;;;;;6283345;22;20046;-91
2021/11/25 06:14:48;;;;;;;94.43;39.50;;;-0.20;99.90;;;;;;6263453;22;20031;-88
2021/11/25 06:17:38;;;;;;;89.03;37.00;;;-0.30;99.90;;;;;;6263678;22;20023;-90
2021/11/25 06:20:25;;;;;;;85.72;37.13;;;-0.20;99.90;;;;;;6260617;22;20076;-90
2021/11/25 06:23:13;;;;;;;84.38;36.88;;;-0.30;99.90;;;;;;6307408;22;20339;-90
2021/11/25 06:26:01;;;;;;;85.93;37.15;;;-0.30;99.90;;;;;;6241561;22;20439;-90
2021/11/25 06:28:48;;;;;;;85.03;35.53;;;-0.30;99.90;;;;;;6285880;22;20326;-90
2021/11/25 06:31:35;;;;;;;90.97;37.60;;;-0.30;99.90;;;;;;6282959;22;20031;-90
2021/11/25 06:34:24;;;;;;;82.07;36.72;;;-0.30;99.90;;;;;;6285242;22;20023;-91
2021/11/25 06:37:11;;;;;;;89.07;36.63;;;-0.20;99.90;;;;;;6282029;22;20031;-91
2021/11/25 06:39:58;;;;;;;86.70;35.20;;;-0.20;99.90;;;;;;6260274;22;20069;-89
2021/11/25 06:42:48;;;;;;;89.40;36.10;;;-0.20;99.90;;;;;;6280937;22;20043;-89
2021/11/25 06:45:37;;;;;;;86.50;37.50;;;-0.30;99.90;;;;;;6282623;22;20027;-87
2021/11/25 06:48:24;;;;;;;82.20;36.17;;;-0.30;99.90;;;;;;6283420;22;20023;-89
2021/11/25 06:51:12;;;;;;;77.13;34.60;;;-0.20;99.90;;;;;;6304628;22;20031;-92
2021/11/25 06:54:00;;;;;;;78.57;35.97;;;-0.20;99.90;;;;;;6267816;22;20042;-90
2021/11/25 06:56:49;;;;;;;81.35;36.38;;;-0.20;99.90;;;;;;6290524;22;20027;-91
2021/11/25 06:59:40;;;;;;;88.43;38.05;;;-0.20;99.90;;;;;;6286492;22;20380;-92
2021/11/25 07:02:31;;;;;;;84.25;37.63;;;-0.30;99.90;;;;;;6309446;22;20023;-90
2021/11/25 07:05:23;;;;;;;99.28;40.03;;;-0.20;99.90;;;;;;6265919;22;20112;-89
2021/11/25 07:08:16;;;;;;;90.78;38.65;;;-0.20;99.90;;;;;;6311356;22;20429;-89
2021/11/25 07:11:07;;;;;;;86.38;39.28;;;-0.20;99.90;;;;;;6308659;22;20027;-90
2021/11/25 07:13:57;;;;;;;88.82;37.55;;;-0.20;99.90;;;;;;6284867;22;20375;-90
2021/11/25 07:16:47;;;;;;;91.57;37.60;;;-0.20;99.90;;;;;;6266719;22;20409;-90
2021/11/25 07:19:40;;;;;;;87.05;37.13;;;-0.30;99.90;;;;;;6286566;22;20027;-88
2021/11/25 07:22:30;;;;;;;;;;;-0.30;99.90;;;;;;6282681;22;20027;-90
2021/11/25 07:25:21;;;;;;;80.03;35.35;;;-0.30;99.90;;;;;;6283714;22;19926;-89
2021/11/25 07:28:14;;;;;;;85.82;35.45;;;-0.20;99.90;;;;;;6314831;22;20464;-91
2021/11/25 07:31:14;;;;;;;83.55;36.13;;;-0.30;99.90;;;;;;6295072;22;20031;-91
2021/11/25 07:35:46;;;;;;;;;;;;;;;;;;;;;
2021/11/25 07:38:47;;;;;;;85.07;36.35;;;-0.30;99.90;;;;;;6213082;23;20127;-91
2021/11/25 07:46:58;;;;;;;84.47;35.63;;;-0.10;99.90;;;;;;6212830;23;20434;-88
2021/11/25 07:54:30;;;;;;;80.30;31.67;;;-0.10;99.90;;;;;;6148274;23;20114;-90
2021/11/25 07:58:17;;;;;;;81.78;33.72;;;-0.10;99.90;;;;;;6169983;23;20033;-91
2021/11/25 08:01:19;;;;;;;76.13;33.58;;;-0.10;99.90;;;;;;6202727;23;20056;-91
2021/11/25 08:09:16;;;;;;;71.35;32.55;;;0.10;99.90;;;;;;6067955;23;20069;-91
2021/11/25 08:12:23;;;;;;;;;;;;;;;;;;;;;
2021/11/25 08:15:15;;;;;;;68.75;32.13;;;0.10;99.90;;;;;;6212698;23;20036;-90
2021/11/25 08:18:10;;;;;;;80.55;33.67;;;0.00;99.90;;;;;;6215476;23;20036;-90
2021/11/25 08:21:04;;;;;;;80.85;34.72;;;0.00;99.90;;;;;;6192016;23;20051;-91
2021/11/25 08:24:48;;;;;;;;;;;;;;;;;;;;;
2021/11/25 08:33:21;;;;;;;;;;;;;;;;;;;;;
2021/11/25 08:36:04;;;;;;;70.22;31.95;;;0.10;99.90;;;;;;6047535;23;20295;-90
2021/11/25 08:38:55;;;;;;;62.78;29.45;;;0.10;99.90;;;;;;6066762;23;20110;-90
2021/11/25 08:54:01;;;;;;;67.75;31.77;;;0.30;99.90;;;;;;5930772;24;20024;-86
2021/11/25 08:56:48;;;;;;;65.40;30.92;;;0.30;99.90;;;;;;6066344;23;20376;-88
2021/11/25 08:59:35;;;;;;;70.32;32.20;;;0.30;99.90;;;;;;6128965;23;20093;-90
2021/11/25 09:02:23;;;;;;;68.25;31.95;;;0.30;99.90;;;;;;6115598;23;20038;-89
2021/11/25 09:05:15;;;;;;;49.70;23.95;;;0.40;99.90;;;;;;6109871;23;20113;-90
2021/11/25 09:08:03;;;;;;;70.85;31.85;;;0.40;99.90;;;;;;6143069;22;20847;-89
2021/11/25 09:10:51;;;;;;;66.43;31.50;;;0.40;99.90;;;;;;6239108;22;20306;-90
2021/11/25 09:13:38;;;;;;;66.88;31.33;;;0.40;99.90;;;;;;6261386;22;20034;-90
2021/11/25 09:16:26;;;;;;;65.10;30.35;;;0.30;99.90;;;;;;6223863;22;20123;-87
2021/11/25 09:19:14;;;;;;;68.47;31.98;;;0.40;99.90;;;;;;6277405;22;20023;-90
2021/11/25 09:22:12;;;;;;;68.80;32.05;;;0.30;99.90;;;;;;6276158;22;20111;-90
2021/11/25 09:34:26;;;;;;;64.07;29.65;;;0.30;99.90;;;;;;6047271;23;20091;-92
2021/11/25 09:37:29;;;;;;;65.70;30.25;;;0.40;99.90;;;;;;6017811;23;20085;-89
2021/11/25 09:40:29;;;;;;;68.53;33.05;;;0.50;99.90;;;;;;6105782;23;20052;-89
2021/11/25 09:43:24;;;;;;;66.72;31.58;;;0.50;99.90;;;;;;6136007;23;20124;-90
2021/11/25 09:46:19;;;;;;;66.40;31.25;;;0.50;99.90;;;;;;6159381;23;20029;-89
2021/11/25 09:49:27;;;;;;;70.70;31.92;;;0.60;99.90;;;;;;6121234;23;20051;-91
2021/11/25 09:52:36;;;;;;;62.92;30.20;;;0.60;99.90;;;;;;6152629;23;20028;-87
2021/11/25 09:55:23;;;;;;;63.20;29.73;;;0.70;99.90;;;;;;6118777;23;20025;-87
2021/11/25 10:06:19;;;;;;;;;;;;;;;;;;;;;
2021/11/25 10:09:31;;;;;;;69.13;31.90;;;0.70;99.90;;;;;;5893404;24;20032;-88
2021/11/25 10:12:36;;;;;;;64.90;30.30;;;0.70;99.90;;;;;;5981091;23;20031;-87
2021/11/25 10:15:30;;;;;;;62.03;30.33;;;0.70;99.90;;;;;;6015284;23;20134;-87
2021/11/25 10:18:18;;;;;;;64.95;30.75;;;0.70;99.90;;;;;;6015003;23;20023;-87
2021/11/25 10:21:09;;;;;;;67.65;32.05;;;0.80;99.90;;;;;;6013589;23;20106;-86
2021/11/25 10:23:57;;;;;;;67.78;32.63;;;0.80;99.90;;;;;;6050584;23;20220;-86
2021/11/25 10:26:44;;;;;;;64.75;30.67;;;0.80;99.90;;;;;;6053561;23;20042;-85
2021/11/25 10:29:32;;;;;;;66.82;30.90;;;0.80;99.90;;;;;;6052527;23;20030;-87
2021/11/25 10:32:21;;;;;;;66.85;30.25;;;0.70;99.90;;;;;;6050859;23;20031;-89
2021/11/25 10:38:37;;;;;;;70.90;31.77;;;0.70;99.90;;;;;;6109578;23;20030;-91
2021/11/25 10:41:29;;;;;;;70.47;33.10;;;0.70;99.90;;;;;;6312417;22;20034;-90
2021/11/25 10:44:28;;;;;;;76.50;33.47;;;0.70;99.90;;;;;;6311856;22;20434;-88
2021/11/25 10:47:21;;;;;;;78.15;33.72;;;0.60;99.90;;;;;;6280287;22;20038;-88
2021/11/25 10:50:11;;;;;;;74.35;33.10;;;0.50;99.90;;;;;;6280613;22;20027;-88
2021/11/25 10:53:09;;;;;;;72.72;33.50;;;0.60;99.90;;;;;;6283507;22;20031;-90
2021/11/25 10:56:06;;;;;;;69.32;33.25;;;0.60;99.90;;;;;;6280870;22;20173;-90
2021/11/25 10:59:06;;;;;;;66.38;30.98;;;0.70;99.90;;;;;;6283822;22;20521;-89
2021/11/25 11:01:56;;;;;;;70.03;32.90;;;0.70;99.90;;;;;;6305880;22;20032;-88
2021/11/25 11:04:47;;;;;;;68.57;31.40;;;0.70;99.90;;;;;;6264380;22;20054;-90
2021/11/25 11:07:45;;;;;;;75.18;31.70;;;0.80;99.90;;;;;;6283476;22;20102;-91
2021/11/25 11:10:42;;;;;;;70.28;32.15;;;0.90;99.90;;;;;;6286810;22;20330;-92
2021/11/25 11:14:10;;;;;;;68.05;32.85;;;1.00;99.90;;;;;;6282057;22;20019;-90
2021/11/25 11:17:26;;;;;;;67.25;30.95;;;1.00;99.90;;;;;;6308406;22;20047;-92
2021/11/25 11:20:40;;;;;;;67.30;31.65;;;1.20;99.90;;;;;;6287395;22;20160;-91
2021/11/25 11:23:44;;;;;;;60.22;31.02;;;1.30;99.90;;;;;;6292669;22;20023;-90
2021/11/25 11:27:02;;;;;;;66.80;31.65;;;1.30;99.90;;;;;;6311165;22;20027;-91
2021/11/25 11:30:00;;;;;;;59.83;29.60;;;1.40;99.90;;;;;;6287991;22;20024;-90
2021/11/25 11:33:15;;;;;;;;;;;;;;;;;;;;;
2021/11/25 11:36:10;;;;;;;56.58;28.63;;;1.40;99.90;;;;;;6310135;22;20020;-88
2021/11/25 11:39:10;;;;;;;;;;;;;;;;;;;;;
2021/11/25 11:45:42;;;;;;;66.85;30.20;;;1.60;99.90;;;;;;6064892;23;20031;-88
2021/11/25 11:48:30;;;;;;;61.35;30.45;;;1.70;99.90;;;;;;6046261;23;20026;-89
2021/11/25 11:51:21;;;;;;;59.22;28.80;;;1.80;99.90;;;;;;6131960;23;20025;-86
2021/11/25 11:54:19;;;;;;;59.15;29.33;;;2.00;99.90;;;;;;6132347;23;20125;-88
2021/11/25 11:57:32;;;;;;;58.55;29.20;;;2.10;99.90;;;;;;6154034;23;20151;-88
2021/11/25 12:00:32;;;;;;;56.83;29.38;;;2.30;99.90;;;;;;6137580;23;20053;-86
2021/11/25 12:03:41;;;;;;;54.78;28.65;;;2.40;99.90;;;;;;6217890;22;20058;-88
2021/11/25 12:06:41;;;;;;;60.63;29.17;;;2.30;99.90;;;;;;6287298;22;20023;-88
2021/11/25 12:09:32;;;;;;;62.40;30.60;;;2.10;99.90;;;;;;6306943;22;20019;-88
2021/11/25 12:12:21;;;;;;;64.97;29.38;;;1.90;99.90;;;;;;6285214;22;20362;-88
2021/11/25 12:15:19;;;;;;;62.55;30.52;;;1.70;99.90;;;;;;6289524;22;20031;-86
2021/11/25 12:18:34;;;;;;;56.03;29.13;;;1.50;99.90;;;;;;6264191;22;20034;-89
2021/11/25 12:21:33;;;;;;;60.67;30.00;;;1.50;99.90;;;;;;6308447;22;20031;-89
2021/11/25 12:24:33;;;;;;;62.08;30.30;;;1.50;99.90;;;;;;6306605;22;20023;-87
2021/11/25 12:27:30;;;;;;;63.45;29.83;;;1.50;99.90;;;;;;6282750;22;20023;-88
2021/11/25 12:30:17;;;;;;;63.53;32.40;;;1.50;99.90;;;;;;6283479;22;20027;-87
2021/11/25 12:33:10;;;;;;;66.97;32.15;;;1.50;99.90;;;;;;6266764;22;20149;-87
2021/11/25 12:36:00;;;;;;;67.88;32.92;;;1.50;99.90;;;;;;6261859;22;20088;-87
2021/11/25 12:38:48;;;;;;;62.50;31.25;;;1.60;99.90;;;;;;6284175;22;20307;-88
2021/11/25 12:41:36;;;;;;;64.85;31.17;;;1.70;99.90;;;;;;6280851;22;20094;-85
2021/11/25 12:44:24;;;;;;;62.55;30.75;;;1.90;99.90;;;;;;6263075;22;20726;-85
2021/11/25 12:47:19;;;;;;;62.70;31.10;;;1.90;99.90;;;;;;6286123;22;20034;-89
2021/11/25 12:50:22;;;;;;;61.78;30.20;;;2.00;99.90;;;;;;6284758;22;20034;-88
2021/11/25 12:53:18;;;;;;;63.65;30.98;;;1.90;99.90;;;;;;6284030;22;20027;-87
2021/11/25 12:56:11;;;;;;;63.22;30.10;;;1.80;99.90;;;;;;6283216;22;20027;-87
2021/11/25 12:59:11;;;;;;;66.28;30.88;;;1.80;99.90;;;;;;6287395;22;20434;-89
2021/11/25 13:02:04;;;;;;;63.28;29.85;;;1.80;99.90;;;;;;6288676;22;20042;-90
2021/11/25 13:04:52;;;;;;;58.33;28.90;;;1.80;99.90;;;;;;6308087;22;20037;-90
2021/11/25 13:07:50;;;;;;;57.97;29.05;;;1.80;99.90;;;;;;6283462;22;20055;-87
2021/11/25 13:10:42;;;;;;;56.75;28.63;;;1.80;99.90;;;;;;6261881;22;20023;-88
2021/11/25 13:13:33;;;;;;;57.60;28.70;;;1.90;99.90;;;;;;6285136;22;20118;-87
2021/11/25 13:16:26;;;;;;;59.35;29.77;;;1.80;99.90;;;;;;6305783;22;20678;-89
2021/11/25 13:19:18;;;;;;;60.40;28.23;;;1.90;99.90;;;;;;6284296;22;20106;-88
2021/11/25 13:22:14;;;;;;;58.95;30.23;;;1.80;99.90;;;;;;6283103;22;20046;-88
2021/11/25 13:25:04;;;;;;;58.85;28.63;;;1.80;99.90;;;;;;6281468;22;20303;-89
2021/11/25 13:27:51;;;;;;;59.83;30.48;;;1.80;99.90;;;;;;6261995;22;20357;-88
2021/11/25 13:30:41;;;;;;;59.78;31.05;;;1.90;99.90;;;;;;6262996;22;20019;-87
2021/11/25 13:33:32;;;;;;;59.65;29.67;;;1.80;99.90;;;;;;6305639;22;20104;-87
2021/11/25 13:36:20;;;;;;;58.85;29.92;;;1.90;99.90;;;;;;6283258;22;20023;-86
2021/11/25 13:39:15;;;;;;;59.28;29.60;;;1.80;99.90;;;;;;6283790;22;20027;-87
2021/11/25 13:42:10;;;;;;;60.75;29.75;;;1.80;99.90;;;;;;6303646;22;20086;-88
2021/11/25 13:44:59;;;;;;;59.53;30.00;;;1.80;99.90;;;;;;6282523;22;20023;-87
2021/11/25 13:47:48;;;;;;;60.88;31.38;;;1.70;99.90;;;;;;6283842;22;20092;-87
2021/11/25 13:50:42;;;;;;;59.30;28.50;;;1.70;99.90;;;;;;6282922;22;20027;-86
2021/11/25 13:53:30;;;;;;;61.60;29.77;;;1.60;99.90;;;;;;6281609;22;20027;-87
2021/11/25 13:56:17;;;;;;;52.17;28.98;;;1.60;99.90;;;;;;6262096;22;20057;-89
2021/11/25 13:59:10;;;;;;;51.35;28.33;;;1.60;99.90;;;;;;6281223;22;20481;-89
2021/11/25 14:01:58;;;;;;;59.63;29.60;;;1.60;99.90;;;;;;6281340;22;20068;-88
2021/11/25 14:04:56;;;;;;;53.30;27.85;;;1.60;99.90;;;;;;6278268;22;20426;-89
2021/11/25 14:07:44;;;;;;;57.28;29.63;;;1.60;99.90;;;;;;6303522;22;20073;-90
2021/11/25 14:10:34;;;;;;;52.88;28.42;;;1.60;99.90;;;;;;6287970;22;20019;-91
2021/11/25 14:13:32;;;;;;;59.47;29.08;;;1.60;99.90;;;;;;6287450;22;20027;-90
2021/11/25 14:16:27;;;;;;;54.75;28.98;;;1.60;99.90;;;;;;6268051;22;20023;-89
2021/11/25 14:19:30;;;;;;;;;;;;;;;;;;;;;
2021/11/25 14:22:44;;;;;;;60.53;31.15;;;1.50;99.90;;;;;;6305422;22;20114;-92
2021/11/25 14:35:43;;;;;;;56.08;28.95;;;1.40;99.90;;;;;;5905992;24;20030;-92
2021/11/25 14:47:36;;;;;;;;;;;;;;;;;;;;;
2021/11/25 14:55:24;;;;;;;;;;;;;;;;;;;;;
2021/11/25 15:10:16;;;;;;;53.40;27.55;;;1.10;99.90;;;;;;5931430;24;20039;-93
2021/11/25 15:17:34;;;;;;;;;;;;;;;;;;;;;
2021/11/25 15:21:01;;;;;;;56.53;27.85;;;1.00;99.90;;;;;;5955086;24;20028;-90
2021/11/25 15:24:06;;;;;;;57.17;29.23;;;0.90;99.90;;;;;;6075696;23;20099;-88
2021/11/25 15:26:53;;;;;;;57.13;29.67;;;0.90;99.90;;;;;;6159787;23;20036;-90
2021/11/25 15:30:07;;;;;;;63.25;32.17;;;0.90;99.90;;;;;;6165734;23;20409;-88
2021/11/25 15:33:02;;;;;;;61.38;30.40;;;0.90;99.90;;;;;;6178503;23;20044;-88
2021/11/25 15:35:53;;;;;;;56.40;27.90;;;0.80;99.90;;;;;;6163072;23;20021;-87
2021/11/25 15:38:42;;;;;;;67.43;31.33;;;0.80;99.90;;;;;;6158943;23;20025;-88
2021/11/25 15:41:34;;;;;;;60.78;29.98;;;0.80;99.90;;;;;;6158413;23;20048;-88
2021/11/25 15:44:31;;;;;;;58.60;28.80;;;0.80;99.90;;;;;;6159541;23;20176;-87
2021/11/25 15:47:21;;;;;;;58.60;30.23;;;0.80;99.90;;;;;;6179343;23;20041;-87
2021/11/25 15:50:09;;;;;;;64.13;32.17;;;0.80;99.90;;;;;;6158092;23;20036;-87
2021/11/25 15:52:57;;;;;;;58.30;29.70;;;0.80;99.90;;;;;;6139936;23;20175;-89
2021/11/25 15:55:47;;;;;;;52.13;29.52;;;0.70;99.90;;;;;;6161609;23;20036;-88
2021/11/25 15:58:42;;;;;;;61.38;30.83;;;0.70;99.90;;;;;;6163109;23;20064;-90
2021/11/25 16:01:30;;;;;;;60.57;30.73;;;0.70;99.90;;;;;;6161727;23;20084;-89
2021/11/25 16:04:21;;;;;;;64.28;32.22;;;0.70;99.90;;;;;;6161708;23;20021;-89
2021/11/25 16:07:08;;;;;;;61.53;30.77;;;0.70;99.90;;;;;;6180865;23;20428;-89
2021/11/25 16:09:59;;;;;;;58.90;31.40;;;0.70;99.90;;;;;;6162133;23;20025;-89
2021/11/25 16:13:00;;;;;;;54.47;29.58;;;0.70;99.90;;;;;;6160062;23;20029;-89
2021/11/25 16:15:48;;;;;;;62.67;31.50;;;0.70;99.90;;;;;;6182528;23;20087;-90
2021/11/25 16:18:38;;;;;;;59.58;31.90;;;0.60;99.90;;;;;;6162888;23;20145;-89
2021/11/25 16:21:29;;;;;;;64.20;32.85;;;0.60;99.90;;;;;;6180315;23;20044;-88
2021/11/25 16:24:17;;;;;;;58.10;31.33;;;0.60;99.90;;;;;;6161982;23;20036;-90
2021/11/25 16:27:12;;;;;;;65.47;32.47;;;0.60;99.90;;;;;;6161741;23;20040;-90
2021/11/25 16:30:02;;;;;;;57.67;31.33;;;0.60;99.90;;;;;;6161334;23;20025;-90
2021/11/25 16:32:50;;;;;;;63.15;32.70;;;0.60;99.90;;;;;;6182752;23;20051;-91
2021/11/25 16:35:37;;;;;;;61.97;32.65;;;0.70;99.90;;;;;;6180698;23;20033;-89
2021/11/25 16:38:24;;;;;;;63.28;33.25;;;0.60;99.90;;;;;;6184032;23;20025;-89
2021/11/25 16:41:12;;;;;;;68.25;34.72;;;0.60;99.90;;;;;;6142536;23;20033;-89
2021/11/25 16:44:00;;;;;;;62.97;33.58;;;0.60;99.90;;;;;;6182684;23;20133;-88
2021/11/25 16:49:40;;;;;;;58.95;33.50;;;0.70;99.90;;;;;;6186789;23;20032;-86
2021/11/25 16:52:27;;;;;;;;;;;0.60;99.90;;;;;;6175428;23;20035;-86